Time;durP1;ratioP1;P1;durP2;ratioP2;P2;SDS_P1;SDS_P2;PMS_P1;PMS_P2;Temp;Humidity;BMP_temperature;BMP_pressure;BME280_temperature;BME280_humidity;BME280_pressure;Samples;Min_cycle;Max_cycle;Signal;HPM_P1;HPM_P2
2023/01/02 00:01:59;;;;;;;8.60;8.40;;;10.30;99.90;;;;;;5042803;28;20242;-89
2023/01/02 00:08:04;;;;;;;9.17;8.87;;;10.20;99.90;;;;;;5031468;28;20240;-88
2023/01/02 00:10:51;;;;;;;8.87;8.67;;;10.20;99.90;;;;;;5041440;28;20243;-88
2023/01/02 00:19:18;;;;;;;8.80;8.60;;;10.20;99.90;;;;;;5041424;28;20232;-89
2023/01/02 00:22:03;;;;;;;8.80;8.60;;;10.10;99.90;;;;;;5054554;28;20230;-87
2023/01/02 00:24:49;;;;;;;8.50;8.30;;;10.10;99.90;;;;;;5048604;28;20231;-88
2023/01/02 00:30:20;;;;;;;8.93;8.73;;;10.00;99.90;;;;;;5042880;28;20314;-88
2023/01/02 00:32:56;;;;;;;8.80;8.60;;;10.00;99.90;;;;;;5042634;28;20286;-88
2023/01/02 00:48:01;;;;;;;9.03;8.83;;;10.00;99.90;;;;;;5045244;28;20211;-87
2023/01/02 00:50:54;;;;;;;9.20;8.90;;;10.00;99.90;;;;;;5059115;28;20212;-86
2023/01/02 00:53:35;;;;;;;9.30;9.00;;;10.00;99.90;;;;;;5028116;28;20283;-87
2023/01/02 00:56:06;;;;;;;9.10;8.87;;;10.00;99.90;;;;;;5058932;28;20220;-87
2023/01/02 01:01:36;;;;;;;9.10;8.83;;;10.10;99.90;;;;;;5041949;28;20283;-88
2023/01/02 01:04:15;;;;;;;9.07;8.87;;;10.10;99.90;;;;;;5042982;28;20237;-87
2023/01/02 01:06:49;;;;;;;9.00;8.80;;;10.20;99.90;;;;;;5054654;28;20327;-88
2023/01/02 01:09:24;;;;;;;8.90;8.70;;;10.20;99.90;;;;;;5042740;28;20236;-87
2023/01/02 01:11:59;;;;;;;9.00;8.80;;;10.20;99.90;;;;;;5041537;28;20223;-88
2023/01/02 01:14:43;;;;;;;9.03;8.83;;;10.10;99.90;;;;;;5041447;28;20238;-88
2023/01/02 01:19:57;;;;;;;8.60;8.40;;;10.20;99.90;;;;;;5041868;28;20317;-87
2023/01/02 01:22:32;;;;;;;8.80;8.60;;;10.20;99.90;;;;;;5049060;28;20231;-88
2023/01/02 01:30:45;;;;;;;8.70;8.50;;;10.30;99.90;;;;;;5051109;28;20242;-88
2023/01/02 01:33:15;;;;;;;8.80;8.60;;;10.30;99.90;;;;;;5040616;28;20236;-88
2023/01/02 01:35:47;;;;;;;8.60;8.40;;;10.40;99.90;;;;;;5039696;28;20239;-88
2023/01/02 01:38:17;;;;;;;9.00;8.80;;;10.40;99.90;;;;;;5038577;28;20289;-87
2023/01/02 01:40:54;;;;;;;8.80;8.60;;;10.40;99.90;;;;;;5038405;28;20657;-88
2023/01/02 01:43:40;;;;;;;8.90;8.70;;;10.50;99.90;;;;;;5038547;28;20247;-88
2023/01/02 01:46:36;;;;;;;8.77;8.57;;;10.50;99.90;;;;;;5038344;28;20333;-87
2023/01/02 01:52:14;;;;;;;8.80;8.60;;;10.50;99.90;;;;;;5039275;28;20311;-88
2023/01/02 01:54:51;;;;;;;8.90;8.70;;;10.60;99.90;;;;;;5038939;28;20290;-89
2023/01/02 02:08:53;;;;;;;9.20;8.90;;;10.60;99.90;;;;;;5197104;27;20590;-87
2023/01/02 02:11:47;;;;;;;9.33;9.03;;;11.20;99.90;;;;;;5177184;27;20230;-88
2023/01/02 02:14:29;;;;;;;9.50;9.20;;;11.20;99.90;;;;;;5177916;27;20223;-87
2023/01/02 02:17:30;;;;;;;9.50;9.20;;;11.10;99.90;;;;;;5178407;27;20227;-88
2023/01/02 02:20:54;;;;;;;9.00;8.80;;;11.00;99.90;;;;;;5118602;27;20233;-88
2023/01/02 02:24:31;;;;;;;;;;;;;;;;;;;;;
2023/01/02 02:27:42;;;;;;;9.40;9.10;;;10.60;99.90;;;;;;5152202;27;20212;-89
2023/01/02 02:34:01;;;;;;;8.93;8.73;;;10.50;99.90;;;;;;5199446;27;20282;-87
2023/01/02 02:36:45;;;;;;;9.07;8.87;;;10.40;99.90;;;;;;5193263;27;20279;-89
2023/01/02 02:39:30;;;;;;;9.00;8.80;;;10.30;99.90;;;;;;5185122;27;20227;-88
2023/01/02 02:42:14;;;;;;;8.80;8.60;;;10.30;99.90;;;;;;5196317;27;20211;-89
2023/01/02 02:44:54;;;;;;;9.57;9.27;;;10.30;99.90;;;;;;5187325;27;20283;-89
2023/01/02 02:47:38;;;;;;;9.53;9.23;;;10.20;99.90;;;;;;5181911;27;20226;-87
2023/01/02 02:50:24;;;;;;;9.30;9.00;;;10.20;99.90;;;;;;5180132;27;20314;-88
2023/01/02 02:53:16;;;;;;;9.40;9.10;;;10.10;99.90;;;;;;5193318;27;20203;-87
2023/01/02 02:58:50;;;;;;;9.40;9.10;;;10.10;99.90;;;;;;5198615;27;20214;-88
2023/01/02 03:01:20;;;;;;;9.63;9.33;;;10.10;99.90;;;;;;5199189;27;20203;-88
2023/01/02 03:03:58;;;;;;;9.90;9.60;;;10.10;99.90;;;;;;5199095;27;20233;-87
2023/01/02 03:06:58;;;;;;;9.83;9.53;;;10.10;99.90;;;;;;5195258;27;20230;-89
2023/01/02 03:09:50;;;;;;;9.50;9.20;;;10.10;99.90;;;;;;5165552;27;20295;-88
2023/01/02 03:12:49;;;;;;;9.30;9.00;;;10.10;99.90;;;;;;5163989;27;20292;-89
2023/01/02 03:15:24;;;;;;;9.00;8.80;;;10.00;99.90;;;;;;5164460;27;20223;-88
2023/01/02 03:18:16;;;;;;;9.23;8.93;;;10.00;99.90;;;;;;5169515;27;20236;-88
2023/01/02 03:21:08;;;;;;;9.20;8.90;;;10.00;99.90;;;;;;5178618;27;20267;-88
2023/01/02 03:24:05;;;;;;;9.30;9.00;;;10.00;99.90;;;;;;5184788;27;20238;-87
2023/01/02 03:26:49;;;;;;;9.03;8.83;;;10.00;99.90;;;;;;5153828;27;20211;-87
2023/01/02 03:29:39;;;;;;;9.00;8.80;;;10.00;99.90;;;;;;5180995;27;20226;-88
2023/01/02 03:32:14;;;;;;;9.37;9.07;;;10.00;99.90;;;;;;5172596;27;20231;-88
2023/01/02 03:41:14;;;;;;;9.10;8.90;;;9.90;99.90;;;;;;5163807;27;20215;-89
2023/01/02 03:43:53;;;;;;;8.93;8.73;;;9.90;99.90;;;;;;5163000;27;20236;-89
2023/01/02 03:46:39;;;;;;;8.90;8.70;;;9.90;99.90;;;;;;5163558;27;20215;-89
2023/01/02 03:49:27;;;;;;;9.00;8.77;;;9.90;99.90;;;;;;5162857;27;20257;-89
2023/01/02 03:52:22;;;;;;;9.07;8.83;;;9.90;99.90;;;;;;5162541;27;20235;-88
2023/01/02 03:55:16;;;;;;;9.27;8.97;;;9.90;99.90;;;;;;5162391;27;20462;-89
2023/01/02 03:58:14;;;;;;;9.40;9.10;;;9.90;99.90;;;;;;5162511;27;20227;-89
2023/01/02 04:01:03;;;;;;;9.23;8.93;;;9.80;99.90;;;;;;5162428;27;20219;-89
2023/01/02 04:03:56;;;;;;;9.23;8.93;;;9.80;99.90;;;;;;5161953;27;20719;-88
2023/01/02 04:06:35;;;;;;;9.30;9.00;;;9.80;99.90;;;;;;5161677;27;20234;-88
2023/01/02 04:09:11;;;;;;;9.17;8.87;;;9.80;99.90;;;;;;5162144;27;20226;-89
2023/01/02 04:12:00;;;;;;;8.93;8.73;;;9.80;99.90;;;;;;5161859;27;20221;-88
2023/01/02 04:14:45;;;;;;;8.90;8.70;;;9.80;99.90;;;;;;5162666;27;20234;-89
2023/01/02 04:17:23;;;;;;;9.20;8.90;;;9.80;99.90;;;;;;5164461;27;20257;-89
2023/01/02 04:22:52;;;;;;;9.20;8.90;;;9.80;99.90;;;;;;5162913;27;20218;-89
2023/01/02 04:28:16;;;;;;;8.80;8.60;;;9.90;99.90;;;;;;5162882;27;20215;-89
2023/01/02 04:30:57;;;;;;;8.90;8.70;;;9.90;99.90;;;;;;5162176;27;20216;-89
2023/01/02 04:33:30;;;;;;;8.90;8.70;;;9.90;99.90;;;;;;5161463;27;20227;-89
2023/01/02 04:38:56;;;;;;;9.13;8.87;;;9.90;99.90;;;;;;5161068;27;20604;-89
2023/01/02 04:44:20;;;;;;;9.43;9.13;;;9.90;99.90;;;;;;5161738;27;20266;-88
2023/01/02 04:47:00;;;;;;;9.30;9.00;;;9.90;99.90;;;;;;5167736;27;20231;-88
2023/01/02 04:49:28;;;;;;;9.30;9.00;;;9.90;99.90;;;;;;5166044;27;20257;-87
2023/01/02 04:54:25;;;;;;;9.30;9.00;;;9.90;99.90;;;;;;5128001;22;20240;-84
2023/01/02 04:56:56;;;;;;;9.30;9.00;;;9.90;99.90;;;;;;5105328;28;20290;-84
2023/01/02 04:59:38;;;;;;;9.10;8.80;;;9.90;99.90;;;;;;5105623;28;20233;-84
2023/01/02 05:02:08;;;;;;;9.00;8.80;;;9.90;99.90;;;;;;5111902;28;20218;-84
2023/01/02 05:04:36;;;;;;;8.90;8.70;;;9.90;99.90;;;;;;5106305;28;20236;-84
2023/01/02 05:07:03;;;;;;;8.80;8.60;;;9.90;99.90;;;;;;5107553;28;20226;-83
2023/01/02 05:09:32;;;;;;;8.80;8.60;;;9.90;99.90;;;;;;5107447;28;20236;-84
2023/01/02 05:12:02;;;;;;;9.20;8.90;;;9.90;99.90;;;;;;5105805;28;20237;-84
2023/01/02 05:14:34;;;;;;;9.20;8.90;;;9.90;99.90;;;;;;5104150;28;20225;-84
2023/01/02 05:17:01;;;;;;;9.00;8.77;;;9.90;99.90;;;;;;5104735;28;20273;-84
2023/01/02 05:19:30;;;;;;;9.17;8.87;;;9.90;99.90;;;;;;5104348;28;20235;-84
2023/01/02 05:24:47;;;;;;;9.30;9.00;;;9.80;99.90;;;;;;5104675;28;20246;-84
2023/01/02 05:27:16;;;;;;;9.30;9.00;;;9.80;99.90;;;;;;5109671;28;20237;-84
2023/01/02 05:29:48;;;;;;;9.57;9.27;;;9.80;99.90;;;;;;5103532;28;20264;-84
2023/01/02 05:32:16;;;;;;;9.27;8.97;;;9.80;99.90;;;;;;5105192;28;20248;-84
2023/01/02 05:34:44;;;;;;;9.30;9.00;;;9.70;99.90;;;;;;5106120;28;20261;-84
2023/01/02 05:37:14;;;;;;;9.40;9.10;;;9.70;99.90;;;;;;5104855;28;20239;-84
2023/01/02 05:39:43;;;;;;;9.20;8.90;;;9.70;99.90;;;;;;5104876;28;20276;-84
2023/01/02 05:42:15;;;;;;;9.13;8.83;;;9.70;99.90;;;;;;5103757;28;20316;-84
2023/01/02 05:44:44;;;;;;;8.97;8.77;;;9.70;99.90;;;;;;5104056;28;20230;-84
2023/01/02 05:47:25;;;;;;;8.70;8.50;;;9.70;99.90;;;;;;5103537;28;20233;-84
2023/01/02 05:49:53;;;;;;;8.77;8.57;;;9.70;99.90;;;;;;5103751;28;20241;-84
2023/01/02 05:52:23;;;;;;;9.20;8.90;;;9.60;99.90;;;;;;5102909;28;20221;-84
2023/01/02 05:54:51;;;;;;;8.83;8.63;;;9.60;99.90;;;;;;5103274;28;20221;-84
2023/01/02 05:57:20;;;;;;;8.60;8.40;;;9.60;99.90;;;;;;5102209;28;20237;-84
2023/01/02 05:59:49;;;;;;;8.70;8.50;;;9.60;99.90;;;;;;5104111;28;21124;-84
2023/01/02 06:02:28;;;;;;;8.60;8.40;;;9.60;99.90;;;;;;5102836;28;20252;-84
2023/01/02 06:04:57;;;;;;;9.00;8.80;;;9.60;99.90;;;;;;5102981;28;20225;-84
2023/01/02 06:07:26;;;;;;;8.67;8.47;;;9.50;99.90;;;;;;5105418;28;20234;-84
2023/01/02 06:09:56;;;;;;;9.50;9.20;;;9.60;99.90;;;;;;5105551;28;20255;-84
2023/01/02 06:12:29;;;;;;;9.33;9.03;;;9.60;99.90;;;;;;5104715;28;20244;-84
2023/01/02 06:14:56;;;;;;;9.07;8.83;;;9.60;99.90;;;;;;5105222;28;20299;-84
2023/01/02 06:17:27;;;;;;;8.77;8.57;;;9.60;99.90;;;;;;5104204;28;20237;-84
2023/01/02 06:19:54;;;;;;;8.70;8.50;;;9.60;99.90;;;;;;5103500;28;20244;-84
2023/01/02 06:22:25;;;;;;;8.40;8.20;;;9.60;99.90;;;;;;5102568;28;20280;-83
2023/01/02 06:24:53;;;;;;;8.80;8.60;;;9.50;99.90;;;;;;5103798;28;20257;-84
2023/01/02 06:27:22;;;;;;;8.57;8.37;;;9.50;99.90;;;;;;5104148;28;20229;-84
2023/01/02 06:29:52;;;;;;;8.47;8.27;;;9.50;99.90;;;;;;5103634;28;20370;-84
2023/01/02 06:32:21;;;;;;;8.40;8.20;;;9.50;99.90;;;;;;5102614;28;20243;-84
2023/01/02 06:35:02;;;;;;;8.10;7.90;;;9.50;99.90;;;;;;5102963;28;20224;-83
2023/01/02 06:37:30;;;;;;;8.40;8.20;;;9.50;99.90;;;;;;5103545;28;20241;-84
2023/01/02 06:39:58;;;;;;;8.50;8.30;;;9.60;99.90;;;;;;5104500;28;20256;-84
2023/01/02 06:42:28;;;;;;;8.60;8.40;;;9.50;99.90;;;;;;5104093;28;20256;-84
2023/01/02 06:44:57;;;;;;;8.70;8.50;;;9.50;99.90;;;;;;5106606;28;20691;-85
2023/01/02 06:47:27;;;;;;;9.10;8.80;;;9.50;99.90;;;;;;5106602;28;20329;-84
2023/01/02 06:50:06;;;;;;;8.70;8.50;;;9.50;99.90;;;;;;5106913;28;20229;-84
2023/01/02 06:52:36;;;;;;;8.47;8.27;;;9.50;99.90;;;;;;5105641;28;20237;-84
2023/01/02 06:55:05;;;;;;;8.40;8.20;;;9.50;99.90;;;;;;5106351;28;20287;-84
2023/01/02 06:57:33;;;;;;;8.13;7.93;;;9.50;99.90;;;;;;5106389;28;20323;-84
2023/01/02 07:00:03;;;;;;;8.47;8.27;;;9.50;99.90;;;;;;5107379;28;20229;-84
2023/01/02 07:02:32;;;;;;;9.20;8.90;;;9.50;99.90;;;;;;5106993;28;20337;-84
2023/01/02 07:05:10;;;;;;;8.87;8.67;;;9.50;99.90;;;;;;5111699;28;20244;-84
2023/01/02 07:07:40;;;;;;;8.97;8.73;;;9.50;99.90;;;;;;5110789;28;20238;-84
2023/01/02 07:10:09;;;;;;;9.20;8.90;;;9.50;99.90;;;;;;5112112;28;20240;-84
2023/01/02 07:12:39;;;;;;;9.03;8.73;;;9.50;99.90;;;;;;5118208;28;20225;-85
2023/01/02 07:15:08;;;;;;;8.93;8.73;;;9.50;99.90;;;;;;5110838;28;20236;-84
2023/01/02 07:17:37;;;;;;;9.50;9.20;;;9.50;99.90;;;;;;5108814;28;20317;-84
2023/01/02 07:20:16;;;;;;;9.60;9.30;;;9.50;99.90;;;;;;5107717;28;20233;-84
2023/01/02 07:22:45;;;;;;;9.60;9.30;;;9.50;99.90;;;;;;5107119;28;20230;-84
2023/01/02 07:25:14;;;;;;;9.27;8.97;;;9.40;99.90;;;;;;5106855;28;20327;-84
2023/01/02 07:27:44;;;;;;;9.50;9.20;;;9.50;99.90;;;;;;5106767;28;20255;-84
2023/01/02 07:30:13;;;;;;;9.23;8.93;;;9.50;99.90;;;;;;5107041;28;20284;-84
2023/01/02 07:32:42;;;;;;;9.03;8.80;;;9.50;99.90;;;;;;5106768;28;20245;-85
2023/01/02 07:35:21;;;;;;;8.90;8.70;;;9.50;99.90;;;;;;5112176;28;20254;-84
2023/01/02 07:37:50;;;;;;;9.40;9.10;;;9.50;99.90;;;;;;5119384;28;20285;-84
2023/01/02 07:40:20;;;;;;;9.27;8.97;;;9.50;99.90;;;;;;5117839;28;20260;-85
2023/01/02 07:42:51;;;;;;;9.30;9.00;;;9.60;99.90;;;;;;5109768;28;20232;-85
2023/01/02 07:45:20;;;;;;;9.47;9.17;;;9.60;99.90;;;;;;5108821;28;20313;-85
2023/01/02 07:47:50;;;;;;;9.20;8.90;;;9.60;99.90;;;;;;5108199;28;20253;-85
2023/01/02 07:53:06;;;;;;;9.37;9.07;;;9.60;99.90;;;;;;5106328;28;20229;-85
2023/01/02 07:55:35;;;;;;;9.10;8.80;;;9.60;99.90;;;;;;5105768;28;20261;-85
2023/01/02 07:58:05;;;;;;;9.20;8.90;;;9.60;99.90;;;;;;5109599;28;20272;-85
2023/01/02 08:00:35;;;;;;;8.63;8.43;;;9.70;99.90;;;;;;5109053;28;20225;-85
2023/01/02 08:03:04;;;;;;;8.90;8.70;;;9.70;99.90;;;;;;5108317;28;20225;-82
2023/01/02 08:05:39;;;;;;;8.70;8.50;;;9.70;99.90;;;;;;5108078;28;20253;-85
2023/01/02 08:08:12;;;;;;;8.80;8.60;;;9.70;99.90;;;;;;5106661;28;20229;-84
2023/01/02 08:10:41;;;;;;;8.87;8.67;;;9.70;99.90;;;;;;5121300;28;20240;-84
2023/01/02 08:13:11;;;;;;;8.80;8.60;;;9.60;99.90;;;;;;5116503;28;20253;-84
2023/01/02 08:15:40;;;;;;;8.70;8.50;;;9.70;99.90;;;;;;5109994;28;20271;-84
2023/01/02 08:18:09;;;;;;;8.40;8.20;;;9.70;99.90;;;;;;5105985;28;20240;-84
2023/01/02 08:20:48;;;;;;;8.40;8.20;;;9.70;99.90;;;;;;5105576;28;20642;-85
2023/01/02 08:23:19;;;;;;;8.43;8.23;;;9.80;99.90;;;;;;5104788;28;20344;-84
2023/01/02 08:25:47;;;;;;;8.80;8.60;;;9.80;99.90;;;;;;5104589;28;20225;-84
2023/01/02 08:28:16;;;;;;;8.80;8.60;;;9.80;99.90;;;;;;5109942;28;20253;-85
2023/01/02 08:30:45;;;;;;;8.90;8.70;;;9.80;99.90;;;;;;5106231;28;20225;-84
2023/01/02 08:33:15;;;;;;;9.20;8.90;;;9.80;99.90;;;;;;5106132;28;20244;-85
2023/01/02 08:35:54;;;;;;;9.03;8.77;;;9.90;99.90;;;;;;5106196;28;20259;-84
2023/01/02 08:38:24;;;;;;;9.13;8.83;;;9.90;99.90;;;;;;5106910;28;20245;-86
2023/01/02 08:40:52;;;;;;;9.20;8.90;;;9.90;99.90;;;;;;5107069;28;20287;-84
2023/01/02 08:43:21;;;;;;;8.90;8.70;;;10.00;99.90;;;;;;5108049;28;20265;-84
2023/01/02 08:45:51;;;;;;;8.90;8.70;;;10.00;99.90;;;;;;5107697;28;20319;-84
2023/01/02 08:48:22;;;;;;;9.10;8.80;;;10.10;99.90;;;;;;5107393;28;20244;-84
2023/01/02 08:50:53;;;;;;;9.30;9.00;;;10.10;99.90;;;;;;5106104;28;20279;-83
2023/01/02 08:53:20;;;;;;;9.23;8.93;;;10.20;99.90;;;;;;5105983;28;20263;-85
2023/01/02 08:55:50;;;;;;;8.90;8.70;;;10.30;99.90;;;;;;5105966;28;20225;-86
2023/01/02 08:58:18;;;;;;;8.87;8.67;;;10.30;99.90;;;;;;5106417;28;20241;-84
2023/01/02 09:00:48;;;;;;;8.80;8.60;;;10.50;99.90;;;;;;5105623;28;20273;-84
2023/01/02 09:03:17;;;;;;;8.43;8.23;;;10.50;99.90;;;;;;5104957;28;20290;-84
2023/01/02 09:05:47;;;;;;;8.63;8.43;;;10.60;99.90;;;;;;5104876;28;20312;-84
2023/01/02 09:08:25;;;;;;;8.60;8.40;;;10.70;99.90;;;;;;5105294;28;20229;-84
2023/01/02 09:10:54;;;;;;;8.50;8.30;;;10.70;99.90;;;;;;5106688;28;20291;-85
2023/01/02 09:13:24;;;;;;;8.40;8.20;;;10.70;99.90;;;;;;5105489;28;20241;-84
2023/01/02 09:15:53;;;;;;;8.70;8.50;;;10.80;99.90;;;;;;5104919;28;20249;-84
2023/01/02 09:18:23;;;;;;;8.80;8.60;;;10.80;99.90;;;;;;5104740;28;20280;-86
2023/01/02 09:20:52;;;;;;;8.90;8.70;;;10.80;99.90;;;;;;5113686;28;20233;-85
2023/01/02 09:23:33;;;;;;;8.83;8.63;;;10.90;99.90;;;;;;5115348;28;20234;-84
2023/01/02 09:26:02;;;;;;;8.70;8.50;;;11.00;99.90;;;;;;5109006;28;20245;-85
2023/01/02 09:28:32;;;;;;;9.23;8.93;;;11.00;99.90;;;;;;5108263;28;20222;-85
2023/01/02 09:31:00;;;;;;;9.70;9.40;;;11.10;99.90;;;;;;5106568;28;21081;-86
2023/01/02 09:33:29;;;;;;;9.50;9.20;;;11.20;99.90;;;;;;5105565;28;20229;-85
2023/01/02 09:36:09;;;;;;;9.20;8.90;;;11.30;99.90;;;;;;5105725;28;20236;-84
2023/01/02 09:38:39;;;;;;;9.63;9.33;;;11.40;99.90;;;;;;5118686;28;20233;-83
2023/01/02 09:41:23;;;;;;;9.50;9.20;;;11.50;99.90;;;;;;5113337;28;20275;-85
2023/01/02 09:43:56;;;;;;;9.67;9.37;;;11.60;99.90;;;;;;5106950;28;20289;-85
2023/01/02 09:46:33;;;;;;;9.63;9.33;;;11.70;99.90;;;;;;5105680;28;20263;-84
2023/01/02 09:49:03;;;;;;;9.40;9.10;;;11.80;99.90;;;;;;5104737;28;20221;-84
2023/01/02 09:51:31;;;;;;;9.27;8.97;;;11.90;99.90;;;;;;5103608;28;20265;-84
2023/01/02 09:54:09;;;;;;;9.90;9.60;;;12.00;99.90;;;;;;5103369;28;20229;-84
2023/01/02 09:56:40;;;;;;;9.50;9.20;;;12.20;99.90;;;;;;5104951;28;20245;-84
2023/01/02 09:59:17;;;;;;;9.40;9.10;;;12.30;99.90;;;;;;5103965;28;20241;-84
2023/01/02 10:05:19;;;;;;;9.30;9.00;;;12.50;99.90;;;;;;5103062;28;20225;-85
2023/01/02 10:10:43;;;;;;;9.27;8.97;;;12.70;99.90;;;;;;5102267;28;20221;-86
2023/01/02 10:13:20;;;;;;;9.40;9.10;;;12.80;99.90;;;;;;5108507;28;20237;-86
2023/01/02 10:15:51;;;;;;;9.40;9.10;;;12.90;99.90;;;;;;5105615;28;20233;-86
2023/01/02 10:18:29;;;;;;;9.33;9.03;;;13.10;99.90;;;;;;5105858;28;20237;-86
2023/01/02 10:21:07;;;;;;;9.33;9.03;;;13.10;99.90;;;;;;5106787;28;20288;-86
2023/01/02 10:23:46;;;;;;;9.40;9.10;;;13.20;99.90;;;;;;5106984;28;20225;-86
2023/01/02 10:26:24;;;;;;;9.70;9.40;;;13.30;99.90;;;;;;5107629;28;20240;-86
2023/01/02 10:31:49;;;;;;;9.30;9.00;;;13.30;99.90;;;;;;5107861;28;20249;-86
2023/01/02 10:34:19;;;;;;;9.30;9.00;;;13.20;99.90;;;;;;5108589;28;20241;-86
2023/01/02 10:36:48;;;;;;;9.47;9.17;;;13.20;99.90;;;;;;5108984;28;20226;-86
2023/01/02 10:39:19;;;;;;;9.37;9.07;;;13.20;99.90;;;;;;5110011;28;20303;-85
2023/01/02 10:41:55;;;;;;;9.30;9.00;;;13.20;99.90;;;;;;5107890;28;20257;-85
2023/01/02 10:44:26;;;;;;;9.50;9.20;;;13.20;99.90;;;;;;5107531;28;20237;-85
2023/01/02 10:46:55;;;;;;;9.37;9.07;;;13.20;99.90;;;;;;5108431;28;20241;-85
2023/01/02 10:49:26;;;;;;;9.70;9.40;;;13.30;99.90;;;;;;5108374;28;20214;-85
2023/01/02 10:52:04;;;;;;;9.90;9.60;;;13.40;99.90;;;;;;5108018;28;20263;-85
2023/01/02 11:00:34;;;;;;;9.73;9.43;;;13.90;99.90;;;;;;5142276;27;20189;-88
2023/01/02 11:03:18;;;;;;;9.47;9.17;;;14.00;99.90;;;;;;5142672;27;20237;-87
2023/01/02 11:06:03;;;;;;;9.40;9.10;;;14.10;99.90;;;;;;5137186;27;20228;-88
2023/01/02 11:08:44;;;;;;;9.40;9.10;;;14.20;99.90;;;;;;5125231;28;20229;-89
2023/01/02 11:14:10;;;;;;;9.43;9.13;;;14.40;99.90;;;;;;5123056;27;20229;-89
2023/01/02 11:16:40;;;;;;;9.37;9.07;;;14.50;99.90;;;;;;5123304;28;20228;-89
2023/01/02 11:19:19;;;;;;;9.50;9.20;;;14.50;99.90;;;;;;5124880;28;20318;-88
2023/01/02 11:21:52;;;;;;;9.23;8.93;;;14.60;99.90;;;;;;5128609;28;20311;-88
2023/01/02 11:24:27;;;;;;;9.30;9.00;;;14.70;99.90;;;;;;5122797;28;20294;-90
2023/01/02 11:27:05;;;;;;;9.18;8.88;;;14.80;99.90;;;;;;5124263;27;20248;-88
2023/01/02 11:29:51;;;;;;;9.48;9.18;;;15.00;99.90;;;;;;5121507;27;20332;-88
2023/01/02 11:35:43;;;;;;;9.40;9.10;;;15.40;99.90;;;;;;5127109;28;20231;-88
2023/01/02 11:41:08;;;;;;;9.45;9.15;;;15.90;99.90;;;;;;5123431;27;20244;-88
2023/01/02 11:43:48;;;;;;;9.23;8.93;;;16.30;99.90;;;;;;5130248;28;20232;-88
2023/01/02 11:46:42;;;;;;;9.23;8.93;;;16.60;99.90;;;;;;5123552;28;20303;-88
2023/01/02 11:49:21;;;;;;;9.23;8.93;;;16.70;99.90;;;;;;5122562;27;20229;-88
2023/01/02 11:51:59;;;;;;;9.43;9.13;;;16.90;99.90;;;;;;5121802;28;20209;-88
2023/01/02 11:54:38;;;;;;;9.70;9.40;;;17.10;99.90;;;;;;5121863;28;20263;-88
2023/01/02 11:57:16;;;;;;;9.70;9.40;;;17.30;99.90;;;;;;5121427;28;20228;-88
2023/01/02 11:59:50;;;;;;;9.50;9.20;;;17.70;99.90;;;;;;5130076;28;20323;-88
2023/01/02 12:02:34;;;;;;;10.07;9.77;;;18.00;99.90;;;;;;5140249;27;20221;-87
2023/01/02 12:05:10;;;;;;;9.93;9.63;;;18.40;99.90;;;;;;5142566;27;20211;-87
2023/01/02 12:07:54;;;;;;;10.25;9.95;;;18.50;99.90;;;;;;5141945;27;20212;-88
2023/01/02 12:10:44;;;;;;;9.98;9.68;;;18.50;99.90;;;;;;5142390;27;20267;-88
2023/01/02 12:13:40;;;;;;;9.90;9.60;;;18.40;99.90;;;;;;5142042;27;20216;-88
2023/01/02 12:16:27;;;;;;;9.80;9.50;;;18.30;99.90;;;;;;5135850;27;20239;-88
2023/01/02 12:19:59;;;;;;;9.90;9.60;;;18.10;99.90;;;;;;5127942;28;20232;-88
2023/01/02 12:23:02;;;;;;;10.20;9.90;;;18.20;99.90;;;;;;5125167;27;20237;-88
2023/01/02 12:25:51;;;;;;;10.00;9.70;;;18.20;99.90;;;;;;5124669;28;20282;-87
2023/01/02 12:28:47;;;;;;;10.20;9.90;;;18.20;99.90;;;;;;5122067;28;20205;-88
2023/01/02 12:34:39;;;;;;;9.85;9.55;;;18.40;99.90;;;;;;5120270;28;20225;-88
2023/01/02 12:37:24;;;;;;;9.30;9.00;;;18.30;99.90;;;;;;5120573;28;20259;-89
2023/01/02 12:40:20;;;;;;;9.15;8.85;;;18.20;99.90;;;;;;5119813;28;20233;-88
2023/01/02 12:43:17;;;;;;;9.05;8.85;;;18.00;99.90;;;;;;5107485;27;20228;-88
2023/01/02 12:45:54;;;;;;;9.00;8.80;;;17.90;99.90;;;;;;5120698;27;20236;-88
2023/01/02 12:48:59;;;;;;;8.60;8.40;;;17.80;99.90;;;;;;5120279;28;20247;-88
2023/01/02 12:51:37;;;;;;;8.82;8.63;;;17.70;99.90;;;;;;5120035;28;20307;-89
2023/01/02 12:55:00;;;;;;;9.70;9.40;;;17.60;99.90;;;;;;5120444;28;20263;-88
2023/01/02 12:57:46;;;;;;;9.57;9.27;;;17.60;99.90;;;;;;5120151;28;20247;-87
2023/01/02 13:00:33;;;;;;;9.50;9.20;;;17.70;99.90;;;;;;5120680;28;20238;-88
2023/01/02 13:03:49;;;;;;;9.55;9.25;;;17.80;99.90;;;;;;5119174;27;20369;-88
2023/01/02 13:06:26;;;;;;;9.40;9.10;;;17.90;99.90;;;;;;5133666;27;20212;-88
2023/01/02 13:09:03;;;;;;;9.60;9.30;;;17.80;99.90;;;;;;5141518;27;20274;-87
2023/01/02 13:11:49;;;;;;;9.35;9.05;;;17.80;99.90;;;;;;5123479;27;20216;-88
2023/01/02 13:14:22;;;;;;;9.40;9.10;;;17.60;99.90;;;;;;5119706;28;20225;-88
2023/01/02 13:16:57;;;;;;;8.93;8.73;;;17.50;99.90;;;;;;5120617;28;20224;-88
2023/01/02 13:19:35;;;;;;;8.90;8.70;;;17.40;99.90;;;;;;5119814;28;20260;-88
2023/01/02 13:22:22;;;;;;;9.35;9.05;;;17.30;99.90;;;;;;5119533;28;20243;-88
2023/01/02 13:24:53;;;;;;;9.30;9.00;;;17.30;99.90;;;;;;5119982;28;20311;-88
2023/01/02 13:27:50;;;;;;;9.50;9.20;;;17.20;99.90;;;;;;5120073;28;20225;-88
2023/01/02 13:30:45;;;;;;;9.38;9.07;;;17.10;99.90;;;;;;5121576;27;20236;-88
2023/01/02 13:33:24;;;;;;;9.20;8.90;;;17.10;99.90;;;;;;5140382;27;20236;-87
2023/01/02 13:35:52;;;;;;;9.30;9.00;;;17.20;99.90;;;;;;5141066;27;20196;-86
2023/01/02 13:38:29;;;;;;;9.10;8.88;;;17.30;99.90;;;;;;5141205;27;20204;-88
2023/01/02 13:41:01;;;;;;;9.60;9.30;;;17.40;99.90;;;;;;5123850;27;20234;-87
2023/01/02 13:46:25;;;;;;;9.57;9.27;;;17.40;99.90;;;;;;5119375;28;20313;-88
2023/01/02 13:51:55;;;;;;;9.50;9.20;;;17.30;99.90;;;;;;5118508;27;20220;-88
2023/01/02 13:54:41;;;;;;;9.60;9.30;;;17.20;99.90;;;;;;5118407;28;20247;-88
2023/01/02 13:57:34;;;;;;;9.50;9.20;;;17.00;99.90;;;;;;5119171;28;20316;-88
2023/01/02 14:00:39;;;;;;;9.30;9.00;;;16.90;99.90;;;;;;5119373;28;20298;-88
2023/01/02 14:03:36;;;;;;;9.70;9.40;;;16.80;99.90;;;;;;5119495;28;21056;-88
2023/01/02 14:06:06;;;;;;;9.68;9.38;;;16.70;99.90;;;;;;5111108;27;20283;-88
2023/01/02 14:08:52;;;;;;;9.38;9.07;;;16.60;99.90;;;;;;5118765;28;20221;-88
2023/01/02 14:11:30;;;;;;;9.65;9.35;;;16.50;99.90;;;;;;5119040;28;20310;-88
2023/01/02 14:14:00;;;;;;;9.75;9.45;;;16.30;99.90;;;;;;5120498;28;20279;-88
2023/01/02 14:17:04;;;;;;;9.55;9.25;;;16.20;99.90;;;;;;5119117;28;20217;-88
2023/01/02 14:19:37;;;;;;;9.50;9.20;;;15.90;99.90;;;;;;5119518;28;20300;-88
2023/01/02 14:22:19;;;;;;;9.35;9.05;;;15.90;99.90;;;;;;5118317;27;20224;-88
2023/01/02 14:24:59;;;;;;;9.38;9.07;;;16.00;99.90;;;;;;5119227;28;20236;-88
2023/01/02 14:27:30;;;;;;;9.50;9.20;;;15.90;99.90;;;;;;5119182;28;20329;-88
2023/01/02 14:30:06;;;;;;;9.30;9.00;;;15.80;99.90;;;;;;5119043;28;20284;-88
2023/01/02 14:32:44;;;;;;;9.50;9.20;;;15.70;99.90;;;;;;5118237;28;20238;-88
2023/01/02 14:35:32;;;;;;;9.85;9.55;;;15.70;99.90;;;;;;5118319;28;20282;-89
2023/01/02 14:38:20;;;;;;;9.57;9.27;;;15.60;99.90;;;;;;5118214;28;20231;-88
2023/01/02 14:40:48;;;;;;;9.80;9.50;;;15.60;99.90;;;;;;5122420;28;20251;-89
2023/01/02 14:43:35;;;;;;;9.45;9.15;;;15.60;99.90;;;;;;5124780;28;20309;-88
2023/01/02 14:46:12;;;;;;;9.65;9.35;;;15.60;99.90;;;;;;5123018;28;20244;-88
2023/01/02 14:51:47;;;;;;;9.57;9.27;;;15.50;99.90;;;;;;5119539;28;20225;-88
2023/01/02 14:54:18;;;;;;;9.50;9.20;;;15.60;99.90;;;;;;5118409;28;20233;-88
2023/01/02 14:56:54;;;;;;;9.60;9.30;;;15.50;99.90;;;;;;5128874;27;20205;-87
2023/01/02 14:59:34;;;;;;;9.32;9.02;;;15.40;99.90;;;;;;5139981;27;20247;-87
2023/01/02 15:02:11;;;;;;;9.25;8.95;;;15.30;99.90;;;;;;5132888;27;20288;-88
2023/01/02 15:04:51;;;;;;;9.25;8.98;;;15.10;99.90;;;;;;5121123;28;20236;-87
2023/01/02 15:07:27;;;;;;;9.45;9.15;;;14.90;99.90;;;;;;5121519;28;20232;-88
2023/01/02 15:10:05;;;;;;;9.23;8.93;;;14.90;99.90;;;;;;5121732;28;20233;-88
2023/01/02 15:15:41;;;;;;;9.25;8.95;;;14.70;99.90;;;;;;5104897;28;20220;-88
2023/01/02 15:18:19;;;;;;;8.77;8.57;;;14.70;99.90;;;;;;5122336;28;20228;-89
2023/01/02 15:20:56;;;;;;;8.85;8.65;;;14.60;99.90;;;;;;5121753;28;20224;-88
2023/01/02 15:23:26;;;;;;;8.80;8.60;;;14.60;99.90;;;;;;5121233;28;20235;-88
2023/01/02 15:25:55;;;;;;;8.90;8.70;;;14.60;99.90;;;;;;5120939;28;20286;-88
2023/01/02 15:28:26;;;;;;;8.77;8.57;;;14.50;99.90;;;;;;5121305;28;20310;-89
2023/01/02 15:31:03;;;;;;;9.40;9.10;;;14.50;99.90;;;;;;5123345;28;20228;-89
2023/01/02 15:33:32;;;;;;;9.03;8.83;;;14.50;99.90;;;;;;5120720;28;20263;-89
2023/01/02 15:36:10;;;;;;;8.83;8.63;;;14.50;99.90;;;;;;5120659;28;20236;-89
2023/01/02 15:38:39;;;;;;;8.90;8.70;;;14.50;99.90;;;;;;5121205;27;20290;-89
2023/01/02 15:41:09;;;;;;;9.30;9.00;;;14.40;99.90;;;;;;5120723;28;20229;-88
2023/01/02 15:46:27;;;;;;;8.50;8.30;;;14.40;99.90;;;;;;5143109;27;20247;-87
2023/01/02 15:48:59;;;;;;;8.30;8.10;;;14.30;99.90;;;;;;5138089;27;20221;-88